createdAt,value
2023-05-10T00:02:17.503Z,101537.75
2023-05-10T00:07:20.163Z,101541.91
2023-05-10T00:12:22.708Z,101539.09
2023-05-10T00:17:25.148Z,101530.81
2023-05-10T00:22:27.718Z,101532.38
2023-05-10T00:27:30.301Z,101524.16
2023-05-10T00:32:33.175Z,101528.78
2023-05-10T00:37:35.709Z,101534.22
2023-05-10T00:42:38.211Z,101549.75
2023-05-10T00:47:42.456Z,101553.59
2023-05-10T00:52:45.214Z,101554.44
2023-05-10T00:57:49.291Z,101551.34
2023-05-10T01:02:51.970Z,101548.84
2023-05-10T01:07:54.727Z,101542.75
2023-05-10T01:12:58.183Z,101548.84
2023-05-10T01:18:01.768Z,101534.94
2023-05-10T01:23:36.256Z,101542.13
2023-05-10T01:29:12.932Z,101544.69
2023-05-10T01:34:22.228Z,101538.34
2023-05-10T01:39:35.299Z,101527.72
2023-05-10T01:45:03.728Z,101527.63
2023-05-10T01:50:11.581Z,101531.13
2023-05-10T01:55:17.428Z,101533.66
2023-05-10T02:00:21.575Z,101530.88
2023-05-10T02:05:30.395Z,101530.72
2023-05-10T02:10:35.585Z,101540.84
2023-05-10T02:15:39.976Z,101544.38
2023-05-10T02:20:44.521Z,101533.16
2023-05-10T02:25:48.764Z,101524.56
2023-05-10T02:30:52.736Z,101513.00
2023-05-10T02:35:57.181Z,101504.63
2023-05-10T02:41:01.004Z,101505.59
2023-05-10T02:46:03.881Z,101489.09
2023-05-10T02:51:09.473Z,101499.63
2023-05-10T02:56:48.361Z,101506.03
2023-05-10T03:01:50.974Z,101491.53
2023-05-10T03:06:54.395Z,101495.13
2023-05-10T03:11:59.888Z,101497.91
2023-05-10T03:17:12.039Z,101508.44
2023-05-10T03:22:22.908Z,101506.84
2023-05-10T03:27:27.501Z,101514.84
2023-05-10T03:32:33.820Z,101509.13
2023-05-10T03:37:37.339Z,101514.78
2023-05-10T03:42:40.018Z,101520.75
2023-05-10T03:47:43.759Z,101524.38
2023-05-10T03:52:46.537Z,101518.16
2023-05-10T03:57:50.779Z,101506.19
2023-05-10T04:02:53.520Z,101500.41
2023-05-10T04:07:56.567Z,101501.69
2023-05-10T04:12:59.382Z,101503.25
2023-05-10T04:18:02.226Z,101501.50
2023-05-10T04:23:04.749Z,101499.72
2023-05-10T04:28:07.568Z,101507.09
2023-05-10T04:33:10.106Z,101504.53
2023-05-10T04:38:12.648Z,101526.81
2023-05-10T04:43:15.232Z,101534.09
2023-05-10T04:48:17.768Z,101527.00
2023-05-10T04:53:20.272Z,101505.31
2023-05-10T04:58:22.825Z,101498.53
2023-05-10T05:03:25.431Z,101518.16
2023-05-10T05:08:28.271Z,101516.81
2023-05-10T05:13:30.847Z,101494.38
2023-05-10T05:18:33.337Z,101502.44
2023-05-10T05:23:35.804Z,101494.78
2023-05-10T05:28:39.610Z,101492.84
2023-05-10T05:33:42.224Z,101494.72
2023-05-10T05:38:44.840Z,101490.66
2023-05-10T05:43:47.205Z,101501.78
2023-05-10T05:48:49.724Z,101512.72
2023-05-10T05:53:52.930Z,101500.03
2023-05-10T05:58:55.473Z,101488.78
2023-05-10T06:03:58.002Z,101513.59
2023-05-10T06:09:00.519Z,101521.97
2023-05-10T06:14:05.049Z,101510.91
2023-05-10T06:19:07.614Z,101516.47
2023-05-10T06:24:10.081Z,101525.00
2023-05-10T06:29:12.557Z,101501.16
2023-05-10T06:34:15.022Z,101497.50
2023-05-10T06:39:18.014Z,101491.84
2023-05-10T06:44:20.641Z,101498.78
2023-05-10T06:49:23.438Z,101503.75
2023-05-10T06:54:25.926Z,101510.31
2023-05-10T06:59:28.398Z,101502.34
2023-05-10T07:04:30.873Z,101514.47
2023-05-10T07:09:33.697Z,101515.16
2023-05-10T07:14:36.249Z,101523.25
2023-05-10T07:19:38.726Z,101514.63
2023-05-10T07:24:41.823Z,101511.56
2023-05-10T07:29:44.224Z,101522.16
2023-05-10T07:34:46.857Z,101512.28
2023-05-10T07:39:49.334Z,101517.59
2023-05-10T07:44:52.384Z,101508.00
2023-05-10T07:49:55.020Z,101488.47
2023-05-10T07:54:58.162Z,101495.78
2023-05-10T08:00:00.866Z,101491.00
2023-05-10T08:05:03.602Z,101492.00
2023-05-10T08:10:07.105Z,101487.13
2023-05-10T08:15:10.166Z,101490.00
2023-05-10T08:20:14.107Z,101481.06
2023-05-10T08:25:16.939Z,101486.06
2023-05-10T08:30:19.614Z,101468.81
2023-05-10T08:35:22.177Z,101464.09
2023-05-10T08:40:27.543Z,101455.31
2023-05-10T08:45:33.980Z,101447.13
2023-05-10T08:50:41.795Z,101446.22
2023-05-10T08:55:44.618Z,101436.56
2023-05-10T09:00:48.438Z,101433.56
2023-05-10T09:05:51.269Z,101430.34
2023-05-10T09:10:56.131Z,101428.44
2023-05-10T09:16:06.983Z,101423.94
2023-05-10T09:21:16.633Z,101406.34
2023-05-10T09:26:24.038Z,101405.72
2023-05-10T09:31:46.410Z,101402.13
2023-05-10T09:36:56.493Z,101400.63
2023-05-10T09:42:01.077Z,101414.50
2023-05-10T09:47:04.222Z,101419.31
2023-05-10T09:52:09.890Z,101413.69
2023-05-10T09:57:23.237Z,101408.34
2023-05-10T10:02:30.580Z,101396.34
2023-05-10T10:07:33.593Z,101399.28
2023-05-10T10:12:36.950Z,101404.06
2023-05-10T10:17:40.444Z,101414.09
2023-05-10T10:22:43.339Z,101400.47
2023-05-10T10:27:55.448Z,101397.63
2023-05-10T10:33:29.223Z,101385.50
2023-05-10T10:39:02.095Z,101383.72
2023-05-10T10:44:37.911Z,101378.91
2023-05-10T10:49:40.514Z,101371.97
2023-05-10T10:54:50.909Z,101369.88
2023-05-10T11:00:13.999Z,101367.94
2023-05-10T11:05:42.640Z,101358.59
2023-05-10T11:11:08.308Z,101369.00
2023-05-10T11:16:15.571Z,101350.75
2023-05-10T11:21:18.314Z,101344.59
2023-05-10T11:26:24.348Z,101343.09
2023-05-10T11:31:28.167Z,101337.22
2023-05-10T11:36:35.185Z,101338.19
2023-05-10T11:41:37.664Z,101324.31
2023-05-10T11:46:40.146Z,101314.03
2023-05-10T11:51:44.814Z,101324.50
2023-05-10T11:56:47.301Z,101332.03
2023-05-10T12:01:49.897Z,101340.44
2023-05-10T12:06:52.432Z,101330.34
2023-05-10T12:11:58.332Z,101339.66
2023-05-10T12:17:00.886Z,101337.47
2023-05-10T12:22:06.817Z,101330.00
2023-05-10T12:27:10.162Z,101342.22
2023-05-10T12:32:12.735Z,101330.00
2023-05-10T12:37:15.461Z,101342.09
2023-05-10T12:42:18.184Z,101341.09
2023-05-10T12:47:20.839Z,101339.03
2023-05-10T12:52:23.398Z,101341.34
2023-05-10T12:57:26.313Z,101327.00
2023-05-10T13:02:28.851Z,101322.41
2023-05-10T13:07:31.328Z,101321.06
2023-05-10T13:12:34.312Z,101322.47
2023-05-10T13:17:36.857Z,101322.41
2023-05-10T13:22:40.714Z,101320.47
2023-05-10T13:27:43.586Z,101314.78
2023-05-10T13:32:46.953Z,101325.78
2023-05-10T13:37:49.644Z,101337.34
2023-05-10T13:42:54.342Z,101334.53
2023-05-10T13:47:56.832Z,101313.19
2023-05-10T13:52:59.505Z,101323.09
2023-05-10T13:58:02.104Z,101324.03
2023-05-10T14:03:06.288Z,101329.69
2023-05-10T14:08:10.682Z,101332.50
2023-05-10T14:13:13.620Z,101352.69
2023-05-10T14:18:16.175Z,101346.66
2023-05-10T14:23:18.778Z,101334.31
2023-05-10T14:28:22.135Z,101342.91
2023-05-10T14:33:24.719Z,101340.56
2023-05-10T14:38:27.965Z,101338.69
2023-05-10T14:43:30.425Z,101335.63
2023-05-10T14:48:32.993Z,101347.03
2023-05-10T14:53:36.027Z,101344.31
2023-05-10T14:58:38.591Z,101348.09
2023-05-10T15:03:41.785Z,101354.88
2023-05-10T15:08:45.084Z,101355.84
2023-05-10T15:13:49.029Z,101356.69
2023-05-10T15:18:52.038Z,101342.66
2023-05-10T15:23:54.717Z,101353.47
2023-05-10T15:28:57.613Z,101343.34
2023-05-10T15:34:02.717Z,101344.31
2023-05-10T15:39:05.284Z,101346.28
2023-05-10T15:44:07.933Z,101349.81
2023-05-10T15:49:10.461Z,101337.75
2023-05-10T15:54:12.959Z,101349.91
2023-05-10T15:59:15.551Z,101360.91
2023-05-10T16:04:18.485Z,101358.63
2023-05-10T16:09:21.982Z,101355.75
2023-05-10T16:14:25.080Z,101351.84
2023-05-10T16:19:29.771Z,101363.31
2023-05-10T16:24:32.654Z,101365.09
2023-05-10T16:29:35.356Z,101368.44
2023-05-10T16:34:37.853Z,101384.53
2023-05-10T16:39:40.452Z,101375.00
2023-05-10T16:44:43.127Z,101380.69
2023-05-10T16:49:45.895Z,101373.75
2023-05-10T16:54:48.334Z,101382.19
2023-05-10T16:59:53.688Z,101388.16
2023-05-10T17:04:56.558Z,101392.19
2023-05-10T17:09:59.729Z,101397.00
2023-05-10T17:15:02.451Z,101419.84
2023-05-10T17:20:08.630Z,101414.91
2023-05-10T17:25:11.446Z,101426.00
2023-05-10T17:30:14.346Z,101427.13
2023-05-10T17:35:17.328Z,101432.44
2023-05-10T17:40:20.134Z,101430.50
2023-05-10T17:45:23.547Z,101423.69
2023-05-10T17:50:26.415Z,101427.00
2023-05-10T17:55:31.128Z,101415.94
2023-05-10T18:00:33.618Z,101415.44
2023-05-10T18:05:37.691Z,101406.72
2023-05-10T18:10:41.466Z,101425.09
2023-05-10T18:15:44.370Z,101414.81
2023-05-10T18:20:46.891Z,101418.59
2023-05-10T18:25:49.682Z,101432.00
2023-05-10T18:30:52.234Z,101424.19
2023-05-10T18:35:55.224Z,101429.81
2023-05-10T18:40:58.171Z,101428.00
2023-05-10T18:46:00.930Z,101430.78
2023-05-10T18:51:03.619Z,101440.84
2023-05-10T18:56:07.504Z,101417.53
2023-05-10T19:01:10.191Z,101413.41
2023-05-10T19:06:12.804Z,101426.78
2023-05-10T19:11:15.726Z,101430.06
2023-05-10T19:16:21.842Z,101418.38
2023-05-10T19:21:25.499Z,101405.50
2023-05-10T19:26:28.563Z,101407.47
2023-05-10T19:31:31.454Z,101405.97
2023-05-10T19:36:34.843Z,101403.28
2023-05-10T19:41:37.693Z,101405.63
2023-05-10T19:46:40.340Z,101385.63
2023-05-10T19:51:43.052Z,101375.72
2023-05-10T19:56:45.546Z,101342.97
2023-05-10T20:01:48.013Z,101345.44
2023-05-10T20:06:50.501Z,101349.25
2023-05-10T20:11:53.089Z,101342.28
2023-05-10T20:16:56.279Z,101366.53
2023-05-10T20:21:59.092Z,101358.81
2023-05-10T20:27:02.752Z,101360.16
2023-05-10T20:32:05.908Z,101352.06
2023-05-10T20:37:08.532Z,101350.22
2023-05-10T20:42:10.990Z,101350.44
2023-05-10T20:47:15.292Z,101338.38
2023-05-10T20:52:17.867Z,101347.94
2023-05-10T20:57:20.566Z,101344.44
2023-05-10T21:02:23.155Z,101343.81
2023-05-10T21:07:25.863Z,101337.38
2023-05-10T21:12:28.400Z,101342.34
2023-05-10T21:17:31.015Z,101342.16
2023-05-10T21:22:33.478Z,101356.06
2023-05-10T21:27:35.951Z,101349.44
2023-05-10T21:32:38.448Z,101339.22
2023-05-10T21:37:40.964Z,101334.09
2023-05-10T21:42:43.600Z,101314.16
2023-05-10T21:47:46.256Z,101323.53
2023-05-10T21:52:48.887Z,101304.41
2023-05-10T21:57:51.457Z,101286.09
2023-05-10T22:02:54.089Z,101285.41
2023-05-10T22:07:56.677Z,101292.84
2023-05-10T22:13:00.431Z,101312.50
2023-05-10T22:18:03.024Z,101304.38
2023-05-10T22:23:05.621Z,101303.69
2023-05-10T22:28:09.558Z,101305.84
2023-05-10T22:33:12.359Z,101314.09
2023-05-10T22:38:15.373Z,101300.84
2023-05-10T22:43:18.542Z,101298.03
2023-05-10T22:48:21.511Z,101304.13
2023-05-10T22:53:24.054Z,101291.56
2023-05-10T22:58:26.981Z,101295.31
2023-05-10T23:03:30.505Z,101303.84
2023-05-10T23:08:33.029Z,101288.03
2023-05-10T23:13:35.511Z,101290.81
2023-05-10T23:18:38.012Z,101298.78
2023-05-10T23:23:40.904Z,101302.34
2023-05-10T23:28:43.334Z,101298.22
2023-05-10T23:33:45.917Z,101297.06
2023-05-10T23:38:49.705Z,101306.09
2023-05-10T23:43:52.082Z,101283.81
2023-05-10T23:48:54.564Z,101280.31
2023-05-10T23:53:56.982Z,101291.16
2023-05-10T23:58:59.524Z,101291.63
